AirNav   Everest Fuels
 
 682 users online  

0CL3 John Nichol's Field Airport
Chula Vista, California, USA

GOING TO CHULA VISTA?


FAA INFORMATION EFFECTIVE 18 JULY 2019

Location

FAA Identifier: 0CL3
Lat/Long: 32-38-00.1400N / 116-53-25.1200W
32-38.002333N / 116-53.418667W
32.6333722 / -116.8903111
(estimated)
Elevation: 500 ft. / 152 m (estimated)
Variation: 13E (1985)
From city: 10 miles E of CHULA VISTA, CA
Time zone: UTC -7 (UTC -8 during Standard Time)
Zip code: 91915

Airport Operations

Airport use: Private use. Permission required prior to landing
Activation date: 10/1987
Control tower: no
ARTCC: LOS ANGELES CENTER
FSS: SAN DIEGO FLIGHT SERVICE STATION
Attendance: 0800-SS
Wind indicator: yes
Segmented circle: yes

Airport Communications

WX ASOS at SDM (6 nm SW): 132.35 (619-661-8297)
WX ASOS at NRS (12 nm W): PHONE 619-437-9890
WX AWOS-3P at SEE (12 nm N): 125.45 (619-449-1228)
WX ASOS at SAN (16 nm W): PHONE 619-296-8934
WX ASOS at MYF (17 nm NW): 126.9 (858-576-4337)

Nearby radio navigation aids

VOR radial/distance  VOR name  Freq  Var
PGYr059/4.7POGGI VORTAC109.8014E
TIJr016/6.4TIJUANA VOR/DME116.5014E
MZBr103/19.1MISSION BAY VORTAC117.8015E
JLIr192/34.1JULIAN VORTAC114.0015E

Airport Services

Runway Information

Runway 9/27

Dimensions: 2036 x 30 ft. / 621 x 9 m
WESTERN 220 FT GRAVEL.
Surface: asphalt
RUNWAY 9  RUNWAY 27
Latitude: 32-38.050167N32-37.954500N
Longitude: 116-53.608833W116-53.228500W
Elevation: 488.0 ft.500.0 ft.
Traffic pattern: rightleft
Displaced threshold: 220 ft.no

Airport Ownership and Management from official FAA records

Ownership: Privately-owned
Owner: TACTICAL AIR OPERATIONS, INC.
13531 OTAY LAKES ROAD
JAMUL, CA 92035
Phone 619-216-8416
Manager: ALAN FINK, PRES.
860 COUNTRY CLUB LANE
CORONADO, CA 92118
Phone 619-216-8416

Airport Operational Statistics

Aircraft based on the field: 23
Multi engine airplanes: 3
Ultralights: 20
    

Additional Remarks

FOR CD CTC LOS ANGELES ARTCC AT 661-575-2079.

Instrument Procedures

There are no published instrument procedures at 0CL3.

Some nearby airports with instrument procedures:

KSDM - Brown Field Municipal Airport (6 nm SW)
KNRS - Imperial Beach Naval Outlying Field (Ream Field) (12 nm W)
KSEE - Gillespie Field Airport (12 nm N)
KSAN - San Diego International Airport (16 nm W)
KMYF - Montgomery-Gibbs Executive Airport (17 nm NW)
KNZY - North Island Naval Air Station (Halsey Field) (17 nm W)
KNKX - Miramar MCAS (Joe Foss Field) Airport (19 nm NW)
 
Loc | Ops | Rwys | IFR | FBO | Links
Com | Nav | Svcs | Stats | Notes
Area around 0CL3 (John Nichol's Field Airport)
 
Road maps at: MapQuest Bing Google
 
Aerial photo
No photo
 
Sectional chart

 
Airport distance calculator
Flying to John Nichol's Field Airport? Find the distance to fly.

From to 0CL3

Sunrise and sunset
Times for 21-Jul-2019
 Local
(UTC-7)
 Zulu
(UTC)
Morning civil twilight05:2812:28
Sunrise05:5512:55
Sunset19:5202:52
Evening civil twilight20:2003:20

Current date and time
Zulu (UTC)  22-Jul-2019 04:38:07
Local (UTC-7)  21-Jul-2019 21:38:07
 
METAR
KSDM 
6nm SW 
220423Z AUTO 27005KT 10SM SCT008 17/16 A2993 RMK AO2 T01670156
MMTJ 
7nm SW 
220342Z 27006KT 8SM SCT200 18/16 A2994 RMK 8/008
KSEE 
12nm N 
220415Z AUTO 28006KT 10SM CLR 21/16 A2992 RMK AO2
KNRS 
12nm W 
220412Z AUTO 10SM BKN011 A2993 RMK AO2 $
KSAN 
16nm W 
220400Z 30006KT 10SM BKN013 BKN200 20/17 A2993 RMK AO2 T02000172 $
KMYF 
16nm NW 
220353Z 29005KT 10SM CLR 19/16 A2992 RMK AO2 SLP129 T01940161
KNZY 
17nm W 
220352Z 29007KT 10SM BKN011 BKN180 19/16 A2992 RMK AO2 SLP130 T01940161
KNKX 
19nm NW 
220355Z 27005KT 10SM CLR 21/16 A2992 RMK AO2 SLP125 T02060161
TAF
MMTJ 
7nm SW 
220424Z 2206/2312 26005KT P6SM SCT015 SCT250 TX25/2221Z TN16/2212Z FM220800 00000KT 5SM HZ OVC012 FM221600 30010KT P6SM SKC FM230400 03005KT 5SM HZ SCT015 FM230900 00000KT 5SM HZ OVC012
KSAN 
16nm W 
220254Z 2203/2306 29006KT P6SM SCT013 FM220400 VRB04KT P6SM OVC014 FM221600 29006KT P6SM FEW015 FM221900 29009KT P6SM SCT150 FM230300 VRB04KT P6SM SCT015
KNZY 
17nm W 
2123/2223 30010KT 9999 FEW018 SCT200 QNH2985INS FM220800 VRB06KT 9999 FEW015 SCT150 QNH2989INS TEMPO 2210/2216 BKN012 BKN150 FM221600 32012KT 9999 FEW020 SCT150 QNH2991INS T18/2212Z T25/2221Z FS30136
KNKX 
19nm NW 
2203/2303 VRB05KT 9999 SKC QNH2988INS BECMG 2207/2209 VRB05KT 9999 OVC015 QNH2992INS TEMPO 2209/2215 8000 BR OVC009 FM221630 VRB06KT 9999 FEW015 QNH2991INS T18/2213Z T27/2222Z
NOTAMs
Click for the latest NOTAMs
NOTAMs are issued by the DoD/FAA and will open in a separate window not controlled by AirNav.

 

 
 

Would you like to see your business listed on this page?

 If your business provides an interesting product or service to pilots, flight crews, aircraft, or users of the John Nichol's Field Airport, you should consider listing it here.  To start the listing process, click on the button below
 
Add a business
 

Other Pages about John Nichol's Field Airport

Update a link
 
Copyright © AirNav, LLC. All rights reserved. Privacy Policy  Contact